createdAt,value
2017-08-21T00:00:02.796Z,14.98
2017-08-21T00:00:07.145Z,14.97
2017-08-21T00:00:11.491Z,15
2017-08-21T00:00:15.731Z,14.97
2017-08-21T00:00:20.195Z,15
2017-08-21T00:00:24.521Z,15.03
2017-08-21T00:00:28.975Z,14.98
2017-08-21T00:00:33.441Z,15.05
2017-08-21T00:00:37.795Z,15
2017-08-21T00:00:42.175Z,15.04
2017-08-21T00:00:46.640Z,14.95
2017-08-21T00:00:51.113Z,14.95
2017-08-21T00:00:55.577Z,14.98
2017-08-21T00:00:59.917Z,14.93
2017-08-21T00:01:04.262Z,15.03
2017-08-21T00:01:08.724Z,14.97
2017-08-21T00:01:12.963Z,15
2017-08-21T00:01:17.189Z,15.04
2017-08-21T00:01:21.647Z,15.04
2017-08-21T00:01:25.862Z,14.97
2017-08-21T00:01:30.205Z,14.97
2017-08-21T00:01:34.551Z,14.98
2017-08-21T00:01:38.879Z,15.04
2017-08-21T00:01:43.334Z,14.95
2017-08-21T00:01:47.667Z,14.98
2017-08-21T00:01:52.123Z,14.98
2017-08-21T00:01:56.565Z,14.97
2017-08-21T00:02:01.042Z,15
2017-08-21T00:02:05.520Z,15.05
2017-08-21T00:02:09.750Z,15.03
2017-08-21T00:02:13.853Z,15.01
2017-08-21T00:02:18.224Z,14.95
2017-08-21T00:02:22.666Z,15.01
2017-08-21T00:02:26.766Z,14.94
2017-08-21T00:02:30.989Z,15.07
2017-08-21T00:02:35.121Z,14.95
2017-08-21T00:02:39.209Z,15
2017-08-21T00:02:43.566Z,15.01
2017-08-21T00:02:47.692Z,15
2017-08-21T00:02:52.160Z,15.04
2017-08-21T00:02:56.505Z,15.04
2017-08-21T00:03:00.955Z,15.03
2017-08-21T00:03:05.435Z,14.97
2017-08-21T00:03:10.030Z,15
2017-08-21T00:03:14.251Z,15.01
2017-08-21T00:03:18.707Z,15
2017-08-21T00:03:23.193Z,15.01
2017-08-21T00:03:27.554Z,15.04
2017-08-21T00:03:32.015Z,15.01
2017-08-21T00:03:36.118Z,15
2017-08-21T00:03:40.222Z,15.04
2017-08-21T00:03:44.685Z,15.03
2017-08-21T00:03:49.018Z,14.94
2017-08-21T00:03:53.474Z,14.98
2017-08-21T00:03:57.695Z,14.98
2017-08-21T00:04:02.053Z,15.09
2017-08-21T00:04:06.401Z,15.07
2017-08-21T00:04:10.740Z,14.94
2017-08-21T00:04:15.067Z,15.03
2017-08-21T00:04:19.542Z,14.98
2017-08-21T00:04:23.899Z,14.94
2017-08-21T00:04:28.255Z,14.97
2017-08-21T00:04:32.494Z,14.95
2017-08-21T00:04:36.494Z,15.04
2017-08-21T00:04:40.952Z,15.04
2017-08-21T00:04:45.422Z,14.97
2017-08-21T00:04:49.782Z,14.95
2017-08-21T00:04:54.258Z,15.01
2017-08-21T00:04:58.715Z,15.01
2017-08-21T00:05:03.183Z,15.05
2017-08-21T00:05:07.521Z,15
2017-08-21T00:05:11.736Z,14.94
2017-08-21T00:05:15.834Z,14.98
2017-08-21T00:05:20.171Z,14.97
2017-08-21T00:05:24.643Z,14.98
2017-08-21T00:05:28.994Z,14.98
2017-08-21T00:05:33.241Z,15
2017-08-21T00:05:37.568Z,14.97
2017-08-21T00:05:42.011Z,14.95
2017-08-21T00:05:46.485Z,14.95
2017-08-21T00:05:50.972Z,14.95
2017-08-21T00:05:55.431Z,14.97
2017-08-21T00:05:59.897Z,15
2017-08-21T00:06:04.371Z,15.03
2017-08-21T00:06:08.767Z,14.95
2017-08-21T00:06:12.980Z,14.94
2017-08-21T00:06:17.437Z,15.01
2017-08-21T00:06:21.682Z,14.95
2017-08-21T00:06:26.145Z,14.97
2017-08-21T00:06:30.479Z,14.97
2017-08-21T00:06:34.721Z,14.95
2017-08-21T00:06:38.835Z,14.95
2017-08-21T00:06:43.294Z,14.97
2017-08-21T00:06:47.545Z,14.97
2017-08-21T00:06:52.023Z,14.95
2017-08-21T00:06:56.469Z,15.01
2017-08-21T00:07:00.932Z,14.94
2017-08-21T00:07:05.261Z,14.93
2017-08-21T00:07:09.607Z,15.03
2017-08-21T00:07:13.851Z,14.97
2017-08-21T00:07:17.960Z,14.95
2017-08-21T00:07:22.292Z,14.94
2017-08-21T00:07:26.745Z,15.03
2017-08-21T00:07:31.086Z,15
2017-08-21T00:07:35.205Z,14.97
2017-08-21T00:07:39.439Z,14.94
2017-08-21T00:07:43.662Z,15.04
2017-08-21T00:07:47.784Z,15
2017-08-21T00:07:52.237Z,15.01
2017-08-21T00:07:56.706Z,15
2017-08-21T00:08:01.159Z,15
2017-08-21T00:08:05.616Z,14.95
2017-08-21T00:08:09.957Z,14.9
2017-08-21T00:08:14.440Z,14.95
2017-08-21T00:08:18.671Z,14.97
2017-08-21T00:08:23.012Z,14.97
2017-08-21T00:08:27.473Z,14.93
2017-08-21T00:08:31.961Z,14.93
2017-08-21T00:08:36.077Z,14.93
2017-08-21T00:08:40.530Z,14.94
2017-08-21T00:08:44.994Z,14.97
2017-08-21T00:08:49.334Z,14.98
2017-08-21T00:08:53.786Z,14.95
2017-08-21T00:08:58.129Z,14.91
2017-08-21T00:09:02.803Z,14.9
2017-08-21T00:09:07.277Z,14.91
2017-08-21T00:09:11.736Z,14.98
2017-08-21T00:09:16.089Z,14.97
2017-08-21T00:09:20.539Z,14.93
2017-08-21T00:09:24.893Z,14.97
2017-08-21T00:09:29.342Z,14.94
2017-08-21T00:09:33.569Z,14.94
2017-08-21T00:09:37.813Z,14.93
2017-08-21T00:09:42.278Z,14.98
2017-08-21T00:09:46.618Z,14.9
2017-08-21T00:09:51.084Z,14.95
2017-08-21T00:09:55.561Z,14.91
2017-08-21T00:10:00.015Z,14.94
2017-08-21T00:10:04.240Z,14.94
2017-08-21T00:10:08.722Z,14.94
2017-08-21T00:10:13.180Z,14.87
2017-08-21T00:10:17.509Z,14.94
2017-08-21T00:10:21.856Z,14.97
2017-08-21T00:10:26.206Z,14.91
2017-08-21T00:10:30.657Z,14.97
2017-08-21T00:10:35.000Z,14.91
2017-08-21T00:10:39.228Z,14.85
2017-08-21T00:10:43.599Z,14.98
2017-08-21T00:10:47.703Z,14.93
2017-08-21T00:10:52.165Z,14.87
2017-08-21T00:10:56.619Z,14.98
2017-08-21T00:11:00.877Z,14.93
2017-08-21T00:11:05.619Z,14.91
2017-08-21T00:11:09.832Z,14.86
2017-08-21T00:11:14.172Z,14.93
2017-08-21T00:11:18.509Z,14.98
2017-08-21T00:11:22.750Z,14.87
2017-08-21T00:11:27.107Z,14.93
2017-08-21T00:11:31.455Z,14.95
2017-08-21T00:11:35.691Z,14.93
2017-08-21T00:11:40.028Z,14.87
2017-08-21T00:11:44.246Z,14.93
2017-08-21T00:11:48.470Z,14.91
2017-08-21T00:11:52.972Z,14.9
2017-08-21T00:11:57.424Z,14.94
2017-08-21T00:12:01.892Z,14.97
2017-08-21T00:12:06.372Z,14.98
2017-08-21T00:12:10.707Z,14.9
2017-08-21T00:12:15.043Z,14.95
2017-08-21T00:12:19.507Z,14.95
2017-08-21T00:12:23.854Z,14.86
2017-08-21T00:12:28.318Z,14.9
2017-08-21T00:12:32.771Z,14.97
2017-08-21T00:12:37.239Z,14.98
2017-08-21T00:12:41.470Z,14.87
2017-08-21T00:12:45.830Z,14.93
2017-08-21T00:12:50.058Z,14.95
2017-08-21T00:12:54.398Z,14.93
2017-08-21T00:12:58.861Z,14.87
2017-08-21T00:13:03.505Z,14.98
2017-08-21T00:13:07.969Z,14.86
2017-08-21T00:13:12.436Z,14.94
2017-08-21T00:13:16.907Z,14.91
2017-08-21T00:13:21.128Z,14.91
2017-08-21T00:13:25.467Z,14.97
2017-08-21T00:13:29.822Z,14.93
2017-08-21T00:13:34.287Z,14.86
2017-08-21T00:13:38.517Z,14.97
2017-08-21T00:13:42.864Z,14.91
2017-08-21T00:13:46.973Z,14.94
2017-08-21T00:13:51.442Z,14.9
2017-08-21T00:13:55.911Z,14.95
2017-08-21T00:14:00.255Z,14.87
2017-08-21T00:14:04.611Z,14.95
2017-08-21T00:14:09.115Z,14.98
2017-08-21T00:14:13.440Z,14.94
2017-08-21T00:14:17.901Z,14.94
2017-08-21T00:14:22.365Z,14.91
2017-08-21T00:14:26.605Z,14.94
2017-08-21T00:14:31.075Z,14.9
2017-08-21T00:14:35.554Z,14.94
2017-08-21T00:14:40.029Z,14.91
2017-08-21T00:14:44.486Z,14.94
2017-08-21T00:14:48.951Z,14.94
2017-08-21T00:14:53.418Z,14.86
2017-08-21T00:14:57.871Z,14.95
2017-08-21T00:15:02.520Z,14.95
2017-08-21T00:15:06.761Z,14.95
2017-08-21T00:15:11.114Z,14.94
2017-08-21T00:15:15.478Z,14.86
2017-08-21T00:15:19.818Z,14.91
2017-08-21T00:15:24.275Z,14.95
2017-08-21T00:15:28.626Z,14.9
2017-08-21T00:15:32.997Z,14.86
2017-08-21T00:15:37.215Z,14.98
2017-08-21T00:15:41.553Z,14.95
2017-08-21T00:15:45.661Z,14.91
2017-08-21T00:15:50.004Z,15
2017-08-21T00:15:54.452Z,14.95
2017-08-21T00:15:58.814Z,14.86
2017-08-21T00:16:03.325Z,14.91
2017-08-21T00:16:07.798Z,14.86
2017-08-21T00:16:12.258Z,14.87
2017-08-21T00:16:16.707Z,14.97
2017-08-21T00:16:21.161Z,14.91
2017-08-21T00:16:25.632Z,14.87
2017-08-21T00:16:29.978Z,14.97
2017-08-21T00:16:34.315Z,14.98
2017-08-21T00:16:38.317Z,14.87
2017-08-21T00:16:42.665Z,14.9
2017-08-21T00:16:46.642Z,14.97
2017-08-21T00:16:51.126Z,14.86
2017-08-21T00:16:55.585Z,14.87
2017-08-21T00:17:00.046Z,14.95
2017-08-21T00:17:04.390Z,14.83
2017-08-21T00:17:08.854Z,14.91
2017-08-21T00:17:13.318Z,14.94
2017-08-21T00:17:17.784Z,14.97
2017-08-21T00:17:22.245Z,14.94
2017-08-21T00:17:26.734Z,14.94
2017-08-21T00:17:31.199Z,14.93
2017-08-21T00:17:35.526Z,14.94
2017-08-21T00:17:39.867Z,14.91
2017-08-21T00:17:43.978Z,14.94
2017-08-21T00:17:48.298Z,14.86
2017-08-21T00:17:52.528Z,14.91
2017-08-21T00:17:57.016Z,14.9
2017-08-21T00:18:01.487Z,15
2017-08-21T00:18:05.941Z,14.9
2017-08-21T00:18:10.739Z,14.98
2017-08-21T00:18:15.109Z,14.94
2017-08-21T00:18:19.468Z,14.95
2017-08-21T00:18:23.942Z,14.93
2017-08-21T00:18:28.299Z,14.93
2017-08-21T00:18:32.642Z,14.91
2017-08-21T00:18:36.875Z,14.87
2017-08-21T00:18:41.090Z,14.91
2017-08-21T00:18:45.429Z,14.91
2017-08-21T00:18:49.661Z,14.91
2017-08-21T00:18:54.158Z,14.87
2017-08-21T00:18:58.638Z,14.93
2017-08-21T00:19:03.269Z,14.93
2017-08-21T00:19:07.723Z,14.85
2017-08-21T00:19:12.074Z,14.94
2017-08-21T00:19:16.546Z,14.91
2017-08-21T00:19:20.881Z,14.97
2017-08-21T00:19:25.232Z,14.93
2017-08-21T00:19:29.713Z,14.95
2017-08-21T00:19:34.069Z,14.94
2017-08-21T00:19:38.062Z,14.93
2017-08-21T00:19:42.193Z,14.94
2017-08-21T00:19:46.532Z,14.91
2017-08-21T00:19:50.889Z,14.93
2017-08-21T00:19:55.243Z,14.86
2017-08-21T00:19:59.585Z,14.9
2017-08-21T00:20:04.364Z,14.94
2017-08-21T00:20:08.822Z,14.97
2017-08-21T00:20:13.283Z,14.93
2017-08-21T00:20:17.791Z,14.95
2017-08-21T00:20:22.255Z,15.01
2017-08-21T00:20:26.716Z,14.98
2017-08-21T00:20:30.948Z,14.98
2017-08-21T00:20:35.195Z,14.9
2017-08-21T00:20:39.314Z,14.97
2017-08-21T00:20:43.656Z,14.97
2017-08-21T00:20:47.760Z,14.93
2017-08-21T00:20:52.205Z,14.95
2017-08-21T00:20:56.551Z,14.97
2017-08-21T00:21:01.015Z,14.93
2017-08-21T00:21:05.372Z,14.91
2017-08-21T00:21:09.747Z,14.97
2017-08-21T00:21:14.192Z,15
2017-08-21T00:21:18.656Z,14.98
2017-08-21T00:21:23.116Z,14.91
2017-08-21T00:21:27.568Z,14.95
2017-08-21T00:21:31.910Z,14.95
2017-08-21T00:21:36.014Z,14.97
2017-08-21T00:21:40.242Z,14.97
2017-08-21T00:21:44.576Z,14.97
2017-08-21T00:21:48.798Z,15
2017-08-21T00:21:53.261Z,14.95
2017-08-21T00:21:57.593Z,15.03
2017-08-21T00:22:02.052Z,14.98
2017-08-21T00:22:06.403Z,15.03
2017-08-21T00:22:10.862Z,15
2017-08-21T00:22:15.204Z,15
2017-08-21T00:22:19.682Z,15
2017-08-21T00:22:24.147Z,15.03
2017-08-21T00:22:28.473Z,15.01
2017-08-21T00:22:32.838Z,15
2017-08-21T00:22:37.069Z,14.91
2017-08-21T00:22:41.408Z,14.93
2017-08-21T00:22:45.649Z,14.95
2017-08-21T00:22:49.872Z,14.98
2017-08-21T00:22:54.198Z,14.94
2017-08-21T00:22:58.650Z,14.94
2017-08-21T00:23:03.298Z,14.97
2017-08-21T00:23:07.766Z,15
2017-08-21T00:23:12.102Z,15
2017-08-21T00:23:16.560Z,14.91
2017-08-21T00:23:21.035Z,14.97
2017-08-21T00:23:25.399Z,15.03
2017-08-21T00:23:29.627Z,14.97
2017-08-21T00:23:33.745Z,14.98
2017-08-21T00:23:37.866Z,14.95
2017-08-21T00:23:42.212Z,14.95
2017-08-21T00:23:46.560Z,15.01
2017-08-21T00:23:51.019Z,15
2017-08-21T00:23:55.465Z,14.95
2017-08-21T00:23:59.924Z,15.01
2017-08-21T00:24:04.684Z,15.03
2017-08-21T00:24:09.154Z,14.94
2017-08-21T00:24:13.491Z,14.98
2017-08-21T00:24:17.940Z,14.95
2017-08-21T00:24:22.398Z,14.95
2017-08-21T00:24:26.874Z,15.04
2017-08-21T00:24:31.228Z,14.95
2017-08-21T00:24:35.553Z,15.03
2017-08-21T00:24:39.894Z,14.95
2017-08-21T00:24:44.246Z,15.04
2017-08-21T00:24:48.465Z,15.07
2017-08-21T00:24:52.919Z,15.03
2017-08-21T00:24:57.370Z,14.93
2017-08-21T00:25:01.840Z,14.93
2017-08-21T00:25:06.346Z,14.98
2017-08-21T00:25:10.814Z,14.98
2017-08-21T00:25:15.274Z,15.03
2017-08-21T00:25:19.731Z,15
2017-08-21T00:25:24.061Z,15.07
2017-08-21T00:25:28.514Z,15.01
2017-08-21T00:25:32.855Z,15.01
2017-08-21T00:25:37.073Z,15.01
2017-08-21T00:25:41.289Z,14.97
2017-08-21T00:25:45.521Z,14.98
2017-08-21T00:25:49.986Z,15
2017-08-21T00:25:54.343Z,15.12
2017-08-21T00:25:58.792Z,14.98
2017-08-21T00:26:03.559Z,15.12
2017-08-21T00:26:08.037Z,14.95
2017-08-21T00:26:12.492Z,15.04
2017-08-21T00:26:16.840Z,15.01
2017-08-21T00:26:21.306Z,15.05
2017-08-21T00:26:25.763Z,15.03
2017-08-21T00:26:30.110Z,15.03
2017-08-21T00:26:34.332Z,15.11
2017-08-21T00:26:38.568Z,15
2017-08-21T00:26:42.817Z,15.11
2017-08-21T00:26:47.043Z,15.09
2017-08-21T00:26:51.491Z,15.01
2017-08-21T00:26:55.961Z,15.03
2017-08-21T00:27:00.432Z,15.03
2017-08-21T00:27:04.670Z,15.04
2017-08-21T00:27:09.128Z,15.07
2017-08-21T00:27:13.605Z,14.98
2017-08-21T00:27:17.944Z,15.05
2017-08-21T00:27:22.408Z,15.07
2017-08-21T00:27:26.628Z,15.03
2017-08-21T00:27:31.028Z,15.12
2017-08-21T00:27:35.130Z,15.05
2017-08-21T00:27:39.337Z,15.01
2017-08-21T00:27:43.565Z,15.11
2017-08-21T00:27:47.934Z,15.05
2017-08-21T00:27:52.038Z,15.03
2017-08-21T00:27:56.267Z,15.04
2017-08-21T00:28:00.612Z,15.07
2017-08-21T00:28:05.101Z,15.05
2017-08-21T00:28:09.447Z,15.09
2017-08-21T00:28:13.910Z,15.12
2017-08-21T00:28:18.144Z,15.04
2017-08-21T00:28:22.613Z,15.03
2017-08-21T00:28:27.077Z,15.12
2017-08-21T00:28:31.538Z,15.04
2017-08-21T00:28:35.648Z,15.09
2017-08-21T00:28:40.004Z,15.05
2017-08-21T00:28:44.345Z,15.04
2017-08-21T00:28:48.804Z,15.05
2017-08-21T00:28:53.155Z,15.09
2017-08-21T00:28:57.496Z,15.05
2017-08-21T00:29:01.951Z,15.04
2017-08-21T00:29:06.418Z,15.05
2017-08-21T00:29:10.885Z,15.11
2017-08-21T00:29:15.348Z,15.03
2017-08-21T00:29:19.689Z,15.05
2017-08-21T00:29:24.147Z,15.05
2017-08-21T00:29:28.626Z,15.09
2017-08-21T00:29:32.967Z,15.03
2017-08-21T00:29:37.193Z,15.05
2017-08-21T00:29:41.305Z,15.01
2017-08-21T00:29:45.653Z,15.05
2017-08-21T00:29:49.874Z,15.05
2017-08-21T00:29:53.996Z,15.07
2017-08-21T00:29:58.458Z,15.07
2017-08-21T00:30:03.051Z,15.05
2017-08-21T00:30:07.271Z,15.05
2017-08-21T00:30:11.623Z,15.09
2017-08-21T00:30:15.967Z,15.09
2017-08-21T00:30:20.081Z,15.05
2017-08-21T00:30:24.549Z,15.07
2017-08-21T00:30:29.009Z,15.07
2017-08-21T00:30:33.359Z,15.03
2017-08-21T00:30:37.704Z,15.11
2017-08-21T00:30:42.048Z,15.01
2017-08-21T00:30:46.502Z,15.09
2017-08-21T00:30:50.730Z,15.05
2017-08-21T00:30:55.070Z,15.01
2017-08-21T00:30:59.527Z,15.09
2017-08-21T00:31:03.997Z,15.07
2017-08-21T00:31:08.472Z,15.09
2017-08-21T00:31:12.951Z,15.01
2017-08-21T00:31:17.409Z,15.07
2017-08-21T00:31:21.739Z,15.04
2017-08-21T00:31:26.207Z,15.09
2017-08-21T00:31:30.682Z,15.09
2017-08-21T00:31:35.033Z,15.05
2017-08-21T00:31:39.257Z,15.03
2017-08-21T00:31:43.481Z,15.12
2017-08-21T00:31:47.828Z,15.04
2017-08-21T00:31:52.058Z,15.09
2017-08-21T00:31:56.406Z,15.01
2017-08-21T00:32:00.757Z,15.09
2017-08-21T00:32:05.451Z,15.12
2017-08-21T00:32:09.799Z,15.09
2017-08-21T00:32:14.297Z,15.11
2017-08-21T00:32:18.765Z,15.04
2017-08-21T00:32:23.118Z,15.03
2017-08-21T00:32:27.579Z,14.98
2017-08-21T00:32:32.038Z,15.01
2017-08-21T00:32:36.127Z,15
2017-08-21T00:32:40.457Z,15.04
2017-08-21T00:32:44.937Z,14.97
2017-08-21T00:32:49.078Z,15.15
2017-08-21T00:32:53.296Z,15.04
2017-08-21T00:32:57.756Z,15.01
2017-08-21T00:33:02.097Z,15
2017-08-21T00:33:06.548Z,15.07
2017-08-21T00:33:10.782Z,15.04
2017-08-21T00:33:15.238Z,15.04
2017-08-21T00:33:19.586Z,15.01
2017-08-21T00:33:24.065Z,14.94
2017-08-21T00:33:28.523Z,15
2017-08-21T00:33:32.986Z,15.05
2017-08-21T00:33:37.098Z,15.03
2017-08-21T00:33:41.325Z,15.04
2017-08-21T00:33:45.659Z,14.97
2017-08-21T00:33:49.999Z,14.93
2017-08-21T00:33:54.356Z,14.94
2017-08-21T00:33:58.812Z,14.98
2017-08-21T00:34:03.171Z,15
2017-08-21T00:34:07.644Z,14.95
2017-08-21T00:34:11.897Z,15
2017-08-21T00:34:16.344Z,14.94
2017-08-21T00:34:20.803Z,14.95
2017-08-21T00:34:25.269Z,14.94
2017-08-21T00:34:29.751Z,14.97
2017-08-21T00:34:34.211Z,14.98
2017-08-21T00:34:38.548Z,15
2017-08-21T00:34:43.023Z,14.98
2017-08-21T00:34:47.386Z,14.97
2017-08-21T00:34:51.607Z,14.98
2017-08-21T00:34:56.069Z,14.97
2017-08-21T00:35:00.435Z,14.95
2017-08-21T00:35:04.778Z,14.98
2017-08-21T00:35:09.236Z,14.94
2017-08-21T00:35:13.699Z,15.01
2017-08-21T00:35:18.050Z,14.95
2017-08-21T00:35:22.523Z,14.97
2017-08-21T00:35:26.997Z,15.01
2017-08-21T00:35:31.345Z,14.86
2017-08-21T00:35:35.803Z,14.95
2017-08-21T00:35:39.786Z,15
2017-08-21T00:35:44.137Z,14.94
2017-08-21T00:35:48.607Z,14.94
2017-08-21T00:35:52.828Z,14.93
2017-08-21T00:35:57.309Z,14.98
2017-08-21T00:36:01.659Z,14.86
2017-08-21T00:36:06.129Z,14.94
2017-08-21T00:36:10.613Z,14.9
2017-08-21T00:36:15.117Z,14.94
2017-08-21T00:36:19.345Z,14.9
2017-08-21T00:36:23.795Z,14.91
2017-08-21T00:36:28.262Z,14.87
2017-08-21T00:36:32.737Z,14.97
2017-08-21T00:36:37.072Z,14.85
2017-08-21T00:36:41.413Z,14.95
2017-08-21T00:36:45.785Z,14.94
2017-08-21T00:36:50.018Z,14.93
2017-08-21T00:36:54.480Z,14.85
2017-08-21T00:36:58.711Z,14.85
2017-08-21T00:37:02.945Z,14.86
2017-08-21T00:37:07.270Z,14.8
2017-08-21T00:37:11.717Z,14.83
2017-08-21T00:37:16.070Z,14.79
2017-08-21T00:37:20.437Z,14.87
2017-08-21T00:37:24.918Z,14.86
2017-08-21T00:37:29.388Z,14.86
2017-08-21T00:37:33.743Z,14.8
2017-08-21T00:37:38.077Z,14.75
2017-08-21T00:37:42.174Z,14.83
2017-08-21T00:37:46.519Z,14.79
2017-08-21T00:37:50.865Z,14.85
2017-08-21T00:37:54.976Z,14.79
2017-08-21T00:37:59.201Z,14.8
2017-08-21T00:38:03.892Z,14.78
2017-08-21T00:38:08.112Z,14.78
2017-08-21T00:38:12.471Z,14.79
2017-08-21T00:38:16.940Z,14.83
2017-08-21T00:38:21.408Z,14.8
2017-08-21T00:38:25.883Z,14.8
2017-08-21T00:38:30.346Z,14.72
2017-08-21T00:38:34.794Z,14.78
2017-08-21T00:38:39.011Z,14.74
2017-08-21T00:38:43.373Z,14.78
2017-08-21T00:38:47.725Z,14.71
2017-08-21T00:38:52.075Z,14.67
2017-08-21T00:38:56.324Z,14.71
2017-08-21T00:39:00.573Z,14.74
2017-08-21T00:39:05.387Z,14.69
2017-08-21T00:39:09.861Z,14.64
2017-08-21T00:39:14.334Z,14.69
2017-08-21T00:39:18.689Z,14.69
2017-08-21T00:39:23.144Z,14.71
2017-08-21T00:39:27.607Z,14.75
2017-08-21T00:39:32.081Z,14.74
2017-08-21T00:39:36.296Z,14.66
2017-08-21T00:39:40.634Z,14.66
2017-08-21T00:39:44.984Z,14.69
2017-08-21T00:39:49.094Z,14.66
2017-08-21T00:39:53.431Z,14.66
2017-08-21T00:39:57.774Z,14.63
2017-08-21T00:40:02.124Z,14.63
2017-08-21T00:40:06.606Z,14.71
2017-08-21T00:40:10.929Z,14.64
2017-08-21T00:40:15.144Z,14.61
2017-08-21T00:40:19.605Z,14.78
2017-08-21T00:40:24.081Z,14.66
2017-08-21T00:40:28.542Z,14.71
2017-08-21T00:40:32.871Z,14.69
2017-08-21T00:40:37.093Z,14.69
2017-08-21T00:40:41.323Z,14.57
2017-08-21T00:40:45.568Z,14.69
2017-08-21T00:40:50.042Z,14.67
2017-08-21T00:40:54.528Z,14.56
2017-08-21T00:40:58.878Z,14.64
2017-08-21T00:41:03.352Z,14.63
2017-08-21T00:41:07.826Z,14.57
2017-08-21T00:41:12.293Z,14.6
2017-08-21T00:41:16.739Z,14.59
2017-08-21T00:41:21.085Z,14.6
2017-08-21T00:41:25.423Z,14.66
2017-08-21T00:41:29.875Z,14.61
2017-08-21T00:41:34.357Z,14.63
2017-08-21T00:41:38.465Z,14.6
2017-08-21T00:41:42.687Z,14.56
2017-08-21T00:41:46.782Z,14.66
2017-08-21T00:41:51.270Z,14.59
2017-08-21T00:41:55.506Z,14.56
2017-08-21T00:41:59.850Z,14.64
2017-08-21T00:42:04.335Z,14.53
2017-08-21T00:42:08.552Z,14.52
2017-08-21T00:42:13.019Z,14.61
2017-08-21T00:42:17.503Z,14.59
2017-08-21T00:42:21.967Z,14.59
2017-08-21T00:42:26.433Z,14.54
2017-08-21T00:42:30.796Z,14.54
2017-08-21T00:42:35.147Z,14.57
2017-08-21T00:42:39.367Z,14.54
2017-08-21T00:42:43.466Z,14.56
2017-08-21T00:42:47.818Z,14.56
2017-08-21T00:42:52.277Z,14.52
2017-08-21T00:42:56.764Z,14.59
2017-08-21T00:43:00.992Z,14.56
2017-08-21T00:43:05.326Z,14.57
2017-08-21T00:43:09.789Z,14.59
2017-08-21T00:43:14.260Z,14.57
2017-08-21T00:43:18.726Z,14.54
2017-08-21T00:43:23.194Z,14.54
2017-08-21T00:43:27.682Z,14.54
2017-08-21T00:43:32.145Z,14.6
2017-08-21T00:43:36.385Z,14.52
2017-08-21T00:43:40.851Z,14.54
2017-08-21T00:43:45.203Z,14.54
2017-08-21T00:43:49.540Z,14.6
2017-08-21T00:43:53.882Z,14.54
2017-08-21T00:43:58.224Z,14.42
2017-08-21T00:44:02.459Z,14.59
2017-08-21T00:44:06.798Z,14.54
2017-08-21T00:44:11.142Z,14.46
2017-08-21T00:44:15.588Z,14.46
2017-08-21T00:44:20.070Z,14.45
2017-08-21T00:44:24.546Z,14.53
2017-08-21T00:44:28.891Z,14.48
2017-08-21T00:44:33.356Z,14.42
2017-08-21T00:44:37.681Z,14.49
2017-08-21T00:44:42.032Z,14.42
2017-08-21T00:44:46.492Z,14.56
2017-08-21T00:44:50.850Z,14.42
2017-08-21T00:44:55.212Z,14.53
2017-08-21T00:44:59.554Z,14.48
2017-08-21T00:45:03.976Z,14.45
2017-08-21T00:45:08.203Z,14.48
2017-08-21T00:45:12.680Z,14.45
2017-08-21T00:45:17.043Z,14.44
2017-08-21T00:45:21.505Z,14.54
2017-08-21T00:45:25.974Z,14.46
2017-08-21T00:45:30.453Z,14.42
2017-08-21T00:45:34.672Z,14.52
2017-08-21T00:45:38.780Z,14.42
2017-08-21T00:45:43.262Z,14.42
2017-08-21T00:45:47.739Z,14.42
2017-08-21T00:45:52.082Z,14.39
2017-08-21T00:45:56.432Z,14.41
2017-08-21T00:46:00.779Z,14.45
2017-08-21T00:46:04.973Z,14.46
2017-08-21T00:46:09.098Z,14.45
2017-08-21T00:46:13.436Z,14.48
2017-08-21T00:46:17.770Z,14.41
2017-08-21T00:46:22.101Z,14.42
2017-08-21T00:46:26.567Z,14.44
2017-08-21T00:46:31.028Z,14.41
2017-08-21T00:46:35.261Z,14.49
2017-08-21T00:46:39.613Z,14.41
2017-08-21T00:46:43.947Z,14.45
2017-08-21T00:46:48.046Z,14.45
2017-08-21T00:46:52.498Z,14.42
2017-08-21T00:46:56.955Z,14.44
2017-08-21T00:47:01.421Z,14.46
2017-08-21T00:47:05.840Z,14.45
2017-08-21T00:47:10.179Z,14.45
2017-08-21T00:47:14.652Z,14.39
2017-08-21T00:47:19.014Z,14.48
2017-08-21T00:47:23.358Z,14.39
2017-08-21T00:47:27.825Z,14.45
2017-08-21T00:47:32.180Z,14.38
2017-08-21T00:47:36.540Z,14.41
2017-08-21T00:47:40.885Z,14.44
2017-08-21T00:47:45.347Z,14.46
2017-08-21T00:47:49.463Z,14.41
2017-08-21T00:47:53.814Z,14.41
2017-08-21T00:47:58.290Z,14.39
2017-08-21T00:48:02.736Z,14.41
2017-08-21T00:48:07.069Z,14.39
2017-08-21T00:48:11.535Z,14.36
2017-08-21T00:48:16.155Z,14.31
2017-08-21T00:48:20.621Z,14.39
2017-08-21T00:48:25.071Z,14.38
2017-08-21T00:48:29.542Z,14.34
2017-08-21T00:48:33.763Z,14.29
2017-08-21T00:48:37.990Z,14.34
2017-08-21T00:48:42.222Z,14.3
2017-08-21T00:48:46.448Z,14.34
2017-08-21T00:48:50.789Z,14.31
2017-08-21T00:48:55.260Z,14.3
2017-08-21T00:48:59.630Z,14.26
2017-08-21T00:49:03.751Z,14.31
2017-08-21T00:49:08.103Z,14.31
2017-08-21T00:49:12.339Z,14.31
2017-08-21T00:49:16.837Z,14.27
2017-08-21T00:49:21.293Z,14.29
2017-08-21T00:49:25.635Z,14.26
2017-08-21T00:49:30.109Z,14.31
2017-08-21T00:49:34.467Z,14.24
2017-08-21T00:49:38.692Z,14.31
2017-08-21T00:49:43.037Z,14.27
2017-08-21T00:49:47.381Z,14.23
2017-08-21T00:49:51.622Z,14.29
2017-08-21T00:49:56.074Z,14.24
2017-08-21T00:50:00.425Z,14.3
2017-08-21T00:50:04.868Z,14.27
2017-08-21T00:50:09.121Z,14.24
2017-08-21T00:50:13.477Z,14.26
2017-08-21T00:50:17.936Z,14.27
2017-08-21T00:50:22.265Z,14.27
2017-08-21T00:50:26.767Z,14.3
2017-08-21T00:50:31.211Z,14.3
2017-08-21T00:50:35.670Z,14.29
2017-08-21T00:50:39.898Z,14.27
2017-08-21T00:50:44.246Z,14.24
2017-08-21T00:50:48.590Z,14.27
2017-08-21T00:50:53.045Z,14.29
2017-08-21T00:50:57.538Z,14.27
2017-08-21T00:51:01.771Z,14.23
2017-08-21T00:51:06.233Z,14.29
2017-08-21T00:51:10.710Z,14.29
2017-08-21T00:51:14.935Z,14.29
2017-08-21T00:51:19.392Z,14.3
2017-08-21T00:51:23.735Z,14.29
2017-08-21T00:51:28.200Z,14.31
2017-08-21T00:51:32.701Z,14.29
2017-08-21T00:51:37.049Z,14.29
2017-08-21T00:51:41.266Z,14.24
2017-08-21T00:51:45.400Z,14.29
2017-08-21T00:51:49.749Z,14.24
2017-08-21T00:51:54.211Z,14.27
2017-08-21T00:51:58.649Z,14.35
2017-08-21T00:52:03.004Z,14.21
2017-08-21T00:52:07.330Z,14.23
2017-08-21T00:52:11.672Z,14.24
2017-08-21T00:52:15.903Z,14.24
2017-08-21T00:52:20.234Z,14.31
2017-08-21T00:52:24.695Z,14.26
2017-08-21T00:52:29.035Z,14.21
2017-08-21T00:52:33.382Z,14.27
2017-08-21T00:52:37.863Z,14.23
2017-08-21T00:52:42.308Z,14.21
2017-08-21T00:52:46.778Z,14.24
2017-08-21T00:52:51.119Z,14.21
2017-08-21T00:52:55.470Z,14.23
2017-08-21T00:52:59.826Z,14.19
2017-08-21T00:53:04.386Z,14.21
2017-08-21T00:53:08.748Z,14.21
2017-08-21T00:53:13.082Z,14.26
2017-08-21T00:53:17.300Z,14.26
2017-08-21T00:53:21.773Z,14.3
2017-08-21T00:53:26.254Z,14.21
2017-08-21T00:53:30.696Z,14.26
2017-08-21T00:53:35.047Z,14.24
2017-08-21T00:53:39.257Z,14.24
2017-08-21T00:53:43.596Z,14.23
2017-08-21T00:53:48.065Z,14.21
2017-08-21T00:53:52.511Z,14.13
2017-08-21T00:53:56.866Z,14.24
2017-08-21T00:54:01.326Z,14.19
2017-08-21T00:54:05.792Z,14.27
2017-08-21T00:54:10.129Z,14.17
2017-08-21T00:54:14.477Z,14.24
2017-08-21T00:54:18.697Z,14.19
2017-08-21T00:54:23.162Z,14.19
2017-08-21T00:54:27.624Z,14.12
2017-08-21T00:54:32.091Z,14.19
2017-08-21T00:54:36.431Z,14.24
2017-08-21T00:54:40.779Z,14.21
2017-08-21T00:54:45.263Z,14.2
2017-08-21T00:54:49.621Z,14.19
2017-08-21T00:54:53.859Z,14.2
2017-08-21T00:54:58.192Z,14.23
2017-08-21T00:55:02.792Z,14.16
2017-08-21T00:55:06.911Z,14.21
2017-08-21T00:55:11.126Z,14.17
2017-08-21T00:55:15.589Z,14.19
2017-08-21T00:55:19.925Z,14.29
2017-08-21T00:55:24.390Z,14.19
2017-08-21T00:55:28.880Z,14.23
2017-08-21T00:55:33.348Z,14.21
2017-08-21T00:55:37.686Z,14.24
2017-08-21T00:55:42.169Z,14.24
2017-08-21T00:55:46.507Z,14.2
2017-08-21T00:55:50.869Z,14.26
2017-08-21T00:55:55.334Z,14.26
2017-08-21T00:55:59.788Z,14.21
2017-08-21T00:56:04.249Z,14.24
2017-08-21T00:56:08.459Z,14.26
2017-08-21T00:56:12.584Z,14.21
2017-08-21T00:56:17.049Z,14.21
2017-08-21T00:56:21.518Z,14.24
2017-08-21T00:56:25.972Z,14.16
2017-08-21T00:56:30.452Z,14.23
2017-08-21T00:56:34.918Z,14.23
2017-08-21T00:56:39.026Z,14.17